Time;durP1;ratioP1;P1;durP2;ratioP2;P2;SDS_P1;SDS_P2;PMS_P1;PMS_P2;Temp;Humidity;BMP_temperature;BMP_pressure;BME280_temperature;BME280_humidity;BME280_pressure;Samples;Min_cycle;Max_cycle;Signal;HPM_P1;HPM_P2
2021/08/04 00:01:30;;;;;;;8.33;7.63;;;16.60;99.90;;;;;;5013609;28;20174;-79
2021/08/04 00:03:55;;;;;;;7.70;6.90;;;16.60;99.90;;;;;;5014490;28;20650;-79
2021/08/04 00:06:21;;;;;;;9.17;7.47;;;16.60;99.90;;;;;;5014481;28;20507;-79
2021/08/04 00:08:47;;;;;;;7.77;6.93;;;16.50;99.90;;;;;;4997081;28;20616;-79
2021/08/04 00:11:12;;;;;;;9.00;8.10;;;16.50;99.90;;;;;;5014378;28;20533;-79
2021/08/04 00:13:38;;;;;;;8.27;7.57;;;16.50;99.90;;;;;;5013099;28;20217;-79
2021/08/04 00:16:04;;;;;;;9.20;8.33;;;16.50;99.90;;;;;;5014137;28;20166;-79
2021/08/04 00:18:30;;;;;;;9.23;8.53;;;16.50;99.90;;;;;;5014483;28;20169;-79
2021/08/04 00:20:55;;;;;;;7.53;6.87;;;16.40;99.90;;;;;;5014321;28;20615;-79
2021/08/04 00:23:21;;;;;;;8.50;7.90;;;16.40;99.90;;;;;;5014423;28;20183;-79
2021/08/04 00:25:48;;;;;;;9.80;7.43;;;16.40;99.90;;;;;;5029140;28;20170;-79
2021/08/04 00:28:13;;;;;;;8.50;7.70;;;16.40;99.90;;;;;;4996543;28;20217;-79
2021/08/04 00:30:39;;;;;;;9.07;8.37;;;16.30;99.90;;;;;;4999844;28;20592;-79
2021/08/04 00:33:05;;;;;;;8.30;7.50;;;16.30;99.90;;;;;;5013955;28;20225;-79
2021/08/04 00:35:31;;;;;;;10.17;8.60;;;16.30;99.90;;;;;;4996261;28;20166;-79
2021/08/04 00:37:57;;;;;;;8.80;8.07;;;16.30;99.90;;;;;;4996275;28;20671;-80
2021/08/04 00:40:23;;;;;;;8.63;7.83;;;16.30;99.90;;;;;;5012760;28;20585;-79
2021/08/04 00:42:49;;;;;;;13.20;8.60;;;16.30;99.90;;;;;;5012449;28;20960;-79
2021/08/04 00:45:15;;;;;;;10.23;9.00;;;16.30;99.90;;;;;;5012398;28;20643;-79
2021/08/04 00:47:42;;;;;;;9.37;8.47;;;16.30;99.90;;;;;;5012488;28;20573;-79
2021/08/04 00:50:09;;;;;;;9.50;8.40;;;16.30;99.90;;;;;;5029094;28;20233;-79
2021/08/04 00:52:35;;;;;;;10.97;8.40;;;16.30;99.90;;;;;;5012449;28;20614;-79
2021/08/04 00:55:01;;;;;;;9.97;8.50;;;16.30;99.90;;;;;;5012180;28;20625;-79
2021/08/04 00:57:27;;;;;;;10.53;9.53;;;16.30;99.90;;;;;;4996027;28;20577;-79
2021/08/04 00:59:53;;;;;;;9.03;8.23;;;16.30;99.90;;;;;;4995813;28;20568;-79
2021/08/04 01:02:35;;;;;;;8.30;7.50;;;16.30;99.90;;;;;;5011896;28;20660;-78
2021/08/04 01:05:16;;;;;;;10.00;9.00;;;16.30;99.90;;;;;;5011594;28;20572;-79
2021/08/04 01:07:49;;;;;;;10.33;7.90;;;16.30;99.90;;;;;;5015610;28;20628;-78
2021/08/04 01:10:28;;;;;;;9.80;8.90;;;16.30;99.90;;;;;;4995891;28;20938;-79
2021/08/04 01:13:12;;;;;;;8.17;7.57;;;16.20;99.90;;;;;;5013515;28;20720;-80
2021/08/04 01:15:43;;;;;;;9.23;8.33;;;16.20;99.90;;;;;;5028115;28;20570;-79
2021/08/04 01:18:11;;;;;;;9.30;8.40;;;16.20;99.90;;;;;;5013700;28;21124;-79
2021/08/04 01:20:37;;;;;;;9.10;8.30;;;16.10;99.90;;;;;;4995392;28;20565;-78
2021/08/04 01:23:22;;;;;;;10.30;9.30;;;16.10;99.90;;;;;;5011860;28;20926;-79
2021/08/04 01:25:55;;;;;;;9.43;8.63;;;16.00;99.90;;;;;;5012497;28;20253;-78
2021/08/04 01:28:47;;;;;;;9.90;8.87;;;16.00;99.90;;;;;;5011916;28;20619;-79
2021/08/04 01:31:16;;;;;;;9.77;8.77;;;16.00;99.90;;;;;;5006176;28;20669;-78
2021/08/04 01:33:48;;;;;;;9.83;8.53;;;16.00;99.90;;;;;;5012704;28;20637;-78
2021/08/04 01:36:14;;;;;;;9.40;7.97;;;15.90;99.90;;;;;;5012383;28;20570;-78
2021/08/04 01:38:41;;;;;;;10.77;9.70;;;15.90;99.90;;;;;;4995663;28;20968;-78
2021/08/04 01:41:09;;;;;;;10.73;9.80;;;15.90;99.90;;;;;;5011559;28;20601;-79
2021/08/04 01:43:37;;;;;;;11.70;10.45;;;15.90;99.90;;;;;;5013245;28;20607;-78
2021/08/04 01:46:04;;;;;;;11.23;9.87;;;15.80;99.90;;;;;;5011673;28;20190;-79
2021/08/04 01:48:30;;;;;;;10.93;9.83;;;15.80;99.90;;;;;;5011472;28;20593;-79
2021/08/04 01:51:04;;;;;;;11.10;10.00;;;15.80;99.90;;;;;;4995208;28;20573;-78
2021/08/04 01:53:30;;;;;;;10.30;9.20;;;15.80;99.90;;;;;;5011139;28;21085;-79
2021/08/04 01:55:57;;;;;;;11.80;9.73;;;15.80;99.90;;;;;;4994814;28;20592;-79
2021/08/04 01:58:23;;;;;;;8.97;8.07;;;15.80;99.90;;;;;;5012592;28;20682;-79
2021/08/04 02:00:48;;;;;;;9.97;9.07;;;15.80;99.90;;;;;;5011427;28;20589;-79
2021/08/04 02:03:14;;;;;;;9.73;8.83;;;15.70;99.90;;;;;;5011277;28;20190;-79
2021/08/04 02:05:40;;;;;;;12.40;8.77;;;15.70;99.90;;;;;;5011024;28;20162;-79
2021/08/04 02:08:31;;;;;;;11.67;9.83;;;15.70;99.90;;;;;;5011072;28;20170;-79
2021/08/04 02:11:26;;;;;;;8.73;8.03;;;15.70;99.90;;;;;;5027795;28;20561;-79
2021/08/04 02:14:01;;;;;;;8.67;7.87;;;15.70;99.90;;;;;;5031880;28;20629;-79
2021/08/04 02:16:33;;;;;;;9.23;8.50;;;15.70;99.90;;;;;;5011280;28;21135;-79
2021/08/04 02:19:29;;;;;;;8.83;8.13;;;15.80;99.90;;;;;;5012159;28;20697;-79
2021/08/04 02:22:02;;;;;;;10.73;9.13;;;15.70;99.90;;;;;;4998228;28;20922;-79
2021/08/04 02:24:32;;;;;;;9.23;8.17;;;15.80;99.90;;;;;;5027014;28;20570;-78
2021/08/04 02:27:00;;;;;;;9.30;8.50;;;15.80;99.90;;;;;;5010765;28;20572;-78
2021/08/04 02:29:32;;;;;;;9.20;8.40;;;15.80;99.90;;;;;;5027109;28;20616;-78
2021/08/04 02:31:58;;;;;;;9.57;8.77;;;15.70;99.90;;;;;;5012007;28;20558;-78
2021/08/04 02:34:25;;;;;;;11.10;10.00;;;15.80;99.90;;;;;;4994480;28;20621;-78
2021/08/04 02:36:50;;;;;;;10.90;9.90;;;15.80;99.90;;;;;;5011842;28;20976;-78
2021/08/04 02:39:16;;;;;;;11.67;10.57;;;15.80;99.90;;;;;;5012134;28;20573;-78
2021/08/04 02:41:43;;;;;;;11.67;10.67;;;15.70;99.90;;;;;;5011918;28;20159;-79
2021/08/04 02:44:09;;;;;;;10.93;9.93;;;15.70;99.90;;;;;;5026934;28;20201;-78
2021/08/04 02:46:34;;;;;;;10.00;8.90;;;15.70;99.90;;;;;;5011774;28;20668;-79
2021/08/04 02:49:00;;;;;;;10.30;9.30;;;15.70;99.90;;;;;;5010733;28;20631;-79
2021/08/04 02:51:28;;;;;;;12.23;9.63;;;15.70;99.90;;;;;;5010317;28;20588;-79
2021/08/04 02:53:58;;;;;;;9.93;9.03;;;15.70;99.90;;;;;;5010366;28;20632;-79
2021/08/04 02:56:25;;;;;;;10.37;9.37;;;15.60;99.90;;;;;;5011747;28;20597;-79
2021/08/04 02:58:51;;;;;;;10.60;9.60;;;15.60;99.90;;;;;;5030587;28;20701;-79
2021/08/04 03:01:17;;;;;;;11.20;9.67;;;15.60;99.90;;;;;;5026962;28;20673;-78
2021/08/04 03:03:43;;;;;;;11.50;10.50;;;15.60;99.90;;;;;;5010461;28;20684;-78
2021/08/04 03:06:09;;;;;;;10.43;9.43;;;15.60;99.90;;;;;;5010234;28;20691;-78
2021/08/04 03:08:35;;;;;;;10.63;9.53;;;15.60;99.90;;;;;;5010495;28;20170;-78
2021/08/04 03:11:00;;;;;;;10.60;9.53;;;15.50;99.90;;;;;;5010716;28;20178;-78
2021/08/04 03:13:28;;;;;;;12.43;10.13;;;15.50;99.90;;;;;;5009852;28;20206;-78
2021/08/04 03:15:55;;;;;;;11.27;10.13;;;15.50;99.90;;;;;;5011205;28;20558;-78
2021/08/04 03:18:20;;;;;;;10.97;9.97;;;15.50;99.90;;;;;;5010329;28;20573;-78
2021/08/04 03:20:46;;;;;;;10.47;9.57;;;15.40;99.90;;;;;;5010421;28;20570;-78
2021/08/04 03:23:12;;;;;;;10.67;9.67;;;15.40;99.90;;;;;;5011394;28;20179;-78
2021/08/04 03:25:38;;;;;;;12.33;11.07;;;15.40;99.90;;;;;;5010047;28;20558;-78
2021/08/04 03:28:03;;;;;;;11.23;10.03;;;15.40;99.90;;;;;;5014797;28;20159;-78
2021/08/04 03:30:29;;;;;;;10.63;9.60;;;15.40;99.90;;;;;;5015303;28;20179;-78
2021/08/04 03:32:55;;;;;;;12.57;11.13;;;15.40;99.90;;;;;;5015357;28;21147;-79
2021/08/04 03:35:20;;;;;;;13.07;11.83;;;15.40;99.90;;;;;;5018085;28;20194;-78
2021/08/04 03:37:46;;;;;;;14.10;12.73;;;15.40;99.90;;;;;;5015225;28;20162;-78
2021/08/04 03:40:12;;;;;;;13.87;12.40;;;15.40;99.90;;;;;;5014933;28;20166;-80
2021/08/04 03:42:38;;;;;;;11.13;10.07;;;15.40;99.90;;;;;;5015126;28;20186;-80
2021/08/04 03:45:06;;;;;;;12.30;11.10;;;15.40;99.90;;;;;;5014597;28;20174;-81
2021/08/04 03:47:31;;;;;;;12.13;10.93;;;15.40;99.90;;;;;;5014835;28;20564;-81
2021/08/04 03:49:57;;;;;;;14.77;12.10;;;15.30;99.90;;;;;;5013764;28;20569;-81
2021/08/04 03:52:23;;;;;;;14.20;12.90;;;15.30;99.90;;;;;;5013690;28;20225;-80
2021/08/04 03:54:48;;;;;;;13.67;12.40;;;15.30;99.90;;;;;;5014506;28;20201;-80
2021/08/04 03:57:15;;;;;;;16.00;14.33;;;15.30;99.90;;;;;;5030095;28;20163;-81
2021/08/04 03:59:40;;;;;;;14.52;13.18;;;15.30;99.90;;;;;;5014817;28;20162;-79
2021/08/04 04:02:06;;;;;;;15.37;13.70;;;15.30;99.90;;;;;;5013411;28;20340;-79
2021/08/04 04:04:33;;;;;;;15.27;13.77;;;15.30;99.90;;;;;;5014275;28;20170;-79
2021/08/04 04:06:58;;;;;;;15.83;14.20;;;15.30;99.90;;;;;;5014557;28;20260;-80
2021/08/04 04:09:24;;;;;;;15.70;14.10;;;15.30;99.90;;;;;;5014666;28;20616;-80
2021/08/04 04:11:51;;;;;;;15.53;13.93;;;15.30;99.90;;;;;;5017285;28;20596;-80
2021/08/04 04:14:16;;;;;;;15.77;13.77;;;15.30;99.90;;;;;;5014085;28;20609;-80
2021/08/04 04:16:42;;;;;;;16.47;14.67;;;15.30;99.90;;;;;;5014299;28;20525;-81
2021/08/04 04:19:08;;;;;;;14.80;13.20;;;15.30;99.90;;;;;;5014449;28;20178;-81
2021/08/04 04:21:34;;;;;;;14.77;13.50;;;15.30;99.90;;;;;;5014320;28;20193;-82
2021/08/04 04:24:00;;;;;;;14.60;13.10;;;15.30;99.90;;;;;;5029280;28;20186;-81
2021/08/04 04:26:26;;;;;;;16.67;14.63;;;15.30;99.90;;;;;;5012946;28;21183;-80
2021/08/04 04:28:51;;;;;;;13.57;12.27;;;15.40;99.90;;;;;;5013236;28;20685;-80
2021/08/04 04:31:17;;;;;;;16.43;14.87;;;15.40;99.90;;;;;;4996168;28;20644;-81
2021/08/04 04:33:43;;;;;;;16.10;14.20;;;15.40;99.90;;;;;;5014045;28;20206;-81
2021/08/04 04:36:08;;;;;;;14.83;13.40;;;15.50;99.90;;;;;;5012450;28;20171;-81
2021/08/04 04:38:35;;;;;;;14.70;13.40;;;15.50;99.90;;;;;;5012641;28;20175;-81
2021/08/04 04:41:00;;;;;;;15.30;13.90;;;15.60;99.90;;;;;;5013880;28;20170;-80
2021/08/04 04:43:26;;;;;;;15.60;14.00;;;15.70;99.90;;;;;;5012671;28;20616;-80
2021/08/04 04:45:52;;;;;;;15.03;13.73;;;15.80;99.90;;;;;;4996309;28;20574;-80
2021/08/04 04:48:18;;;;;;;14.83;13.33;;;15.90;99.90;;;;;;5015901;28;20179;-80
2021/08/04 04:50:44;;;;;;;14.87;13.43;;;15.90;99.90;;;;;;5013901;28;20178;-80
2021/08/04 04:53:10;;;;;;;17.43;14.20;;;16.00;99.90;;;;;;5013588;28;20949;-80
2021/08/04 04:55:36;;;;;;;14.17;12.77;;;16.10;99.90;;;;;;5012377;28;20585;-80
2021/08/04 04:58:01;;;;;;;14.57;13.07;;;16.20;99.90;;;;;;5013633;28;20209;-80
2021/08/04 05:00:27;;;;;;;14.57;13.10;;;16.30;99.90;;;;;;5012511;28;20824;-80
2021/08/04 05:02:53;;;;;;;18.07;12.90;;;16.40;99.90;;;;;;5013499;28;20585;-80
2021/08/04 05:05:19;;;;;;;14.77;13.43;;;16.60;99.90;;;;;;5013262;28;20182;-80
2021/08/04 05:07:44;;;;;;;16.87;14.00;;;16.70;99.90;;;;;;5013329;28;20170;-80
2021/08/04 05:10:11;;;;;;;16.10;12.93;;;16.80;99.90;;;;;;5020272;28;20174;-80
2021/08/04 05:12:36;;;;;;;17.63;12.30;;;16.90;99.90;;;;;;5036281;28;20272;-80
2021/08/04 05:15:03;;;;;;;13.40;12.20;;;17.00;99.90;;;;;;5063040;22;20770;-79
2021/08/04 05:17:29;;;;;;;14.23;12.93;;;17.10;99.90;;;;;;5053751;28;20169;-79
2021/08/04 05:19:55;;;;;;;14.77;12.93;;;17.20;99.90;;;;;;5053917;28;20930;-78
2021/08/04 05:22:20;;;;;;;13.50;12.20;;;17.30;99.90;;;;;;5053425;28;20223;-79
2021/08/04 05:24:46;;;;;;;13.20;12.07;;;17.40;99.90;;;;;;5052896;28;20185;-79
2021/08/04 05:27:12;;;;;;;15.80;12.57;;;17.40;99.90;;;;;;5052741;28;20173;-79
2021/08/04 05:29:37;;;;;;;11.20;10.10;;;17.50;99.90;;;;;;5052765;28;20976;-78
2021/08/04 05:32:04;;;;;;;15.00;13.50;;;17.50;99.90;;;;;;5051835;28;20196;-79
2021/08/04 05:34:29;;;;;;;14.73;13.47;;;17.60;99.90;;;;;;5034308;28;20215;-79
2021/08/04 05:36:55;;;;;;;14.50;13.00;;;17.60;99.90;;;;;;5051528;28;20571;-79
2021/08/04 05:39:21;;;;;;;15.30;12.47;;;17.70;99.90;;;;;;5051112;28;20948;-79
2021/08/04 05:41:47;;;;;;;15.47;14.03;;;17.80;99.90;;;;;;5051384;28;20184;-79
2021/08/04 05:44:12;;;;;;;16.20;14.70;;;17.90;99.90;;;;;;5050982;28;20185;-80
2021/08/04 05:46:38;;;;;;;14.63;13.23;;;18.00;99.90;;;;;;5056831;28;20655;-78
2021/08/04 05:49:04;;;;;;;15.87;14.47;;;18.10;99.90;;;;;;5050473;28;20176;-77
2021/08/04 05:51:29;;;;;;;16.03;14.53;;;18.20;99.90;;;;;;5051216;28;20173;-79
2021/08/04 05:53:55;;;;;;;17.10;14.00;;;18.40;99.90;;;;;;5051881;28;20209;-79
2021/08/04 05:56:21;;;;;;;15.67;13.53;;;18.60;99.90;;;;;;5052626;28;20236;-79
2021/08/04 05:58:46;;;;;;;16.27;14.20;;;18.70;99.90;;;;;;5052151;28;20177;-79
2021/08/04 06:01:12;;;;;;;16.47;14.90;;;18.90;99.90;;;;;;5053415;28;20196;-79
2021/08/04 06:03:38;;;;;;;13.17;11.97;;;18.90;99.90;;;;;;5052142;28;20184;-79
2021/08/04 06:06:03;;;;;;;18.57;14.20;;;19.10;99.90;;;;;;5051658;28;20243;-79
2021/08/04 06:08:30;;;;;;;15.13;13.80;;;19.20;99.90;;;;;;5051964;28;20188;-79
2021/08/04 06:10:56;;;;;;;14.90;13.60;;;19.30;99.90;;;;;;5051975;28;20562;-79
2021/08/04 06:13:22;;;;;;;15.20;13.70;;;19.50;99.90;;;;;;5052409;28;20662;-81
2021/08/04 06:15:49;;;;;;;14.37;12.97;;;19.50;99.90;;;;;;5051533;28;21205;-81
2021/08/04 06:18:15;;;;;;;14.07;12.77;;;19.60;99.90;;;;;;5018069;28;20264;-80
2021/08/04 06:20:42;;;;;;;13.77;12.00;;;19.60;99.90;;;;;;5043141;28;20660;-81
2021/08/04 06:23:07;;;;;;;13.23;11.93;;;19.60;99.90;;;;;;5032724;28;20162;-81
2021/08/04 06:25:33;;;;;;;15.03;13.53;;;19.60;99.90;;;;;;5035210;28;20639;-81
2021/08/04 06:27:59;;;;;;;13.53;12.33;;;19.60;99.90;;;;;;5034101;28;20207;-81
2021/08/04 06:30:24;;;;;;;16.73;15.00;;;19.60;99.90;;;;;;5036507;28;20178;-81
2021/08/04 06:32:50;;;;;;;14.30;12.93;;;19.50;99.90;;;;;;5033202;28;20170;-82
2021/08/04 06:35:16;;;;;;;14.13;12.83;;;19.50;99.90;;;;;;5032768;28;20194;-82
2021/08/04 06:37:42;;;;;;;14.90;13.53;;;19.50;99.90;;;;;;5032642;28;20581;-82
2021/08/04 06:40:09;;;;;;;13.50;12.30;;;19.60;99.90;;;;;;5033595;28;20569;-81
2021/08/04 06:42:35;;;;;;;13.70;12.30;;;19.60;99.90;;;;;;5034787;28;20162;-81
2021/08/04 06:45:01;;;;;;;19.90;13.00;;;19.60;99.90;;;;;;5036290;28;20657;-81
2021/08/04 06:47:26;;;;;;;14.03;12.40;;;19.70;99.90;;;;;;5036933;28;20194;-81
2021/08/04 06:49:52;;;;;;;12.43;11.33;;;19.80;99.90;;;;;;5033255;28;20181;-81
2021/08/04 06:52:18;;;;;;;14.23;12.93;;;19.90;99.90;;;;;;5033669;28;20235;-81
2021/08/04 06:54:43;;;;;;;16.03;11.83;;;20.00;99.90;;;;;;5034294;28;20308;-81
2021/08/04 06:57:09;;;;;;;14.10;12.70;;;20.10;99.90;;;;;;5038843;28;20173;-80
2021/08/04 06:59:35;;;;;;;13.53;12.23;;;20.20;99.90;;;;;;5037583;28;20161;-82
2021/08/04 07:02:03;;;;;;;14.30;13.00;;;20.40;99.90;;;;;;5046866;28;20177;-81
2021/08/04 07:04:29;;;;;;;12.23;11.13;;;20.60;99.90;;;;;;5049317;28;20189;-81
2021/08/04 07:06:58;;;;;;;13.70;12.40;;;21.00;99.90;;;;;;5048382;28;20595;-81
2021/08/04 07:09:24;;;;;;;12.07;10.90;;;21.70;99.90;;;;;;5045344;28;20584;-80
2021/08/04 07:11:51;;;;;;;12.20;11.00;;;22.40;99.90;;;;;;5048638;28;20580;-80
2021/08/04 07:14:17;;;;;;;12.07;10.90;;;23.30;99.90;;;;;;5031495;28;20670;-80
2021/08/04 07:16:43;;;;;;;10.40;9.47;;;24.40;99.90;;;;;;5048825;28;20568;-81
2021/08/04 07:19:10;;;;;;;10.80;9.83;;;25.20;99.90;;;;;;5048252;28;20631;-80
2021/08/04 07:21:37;;;;;;;10.20;9.00;;;25.90;99.90;;;;;;5048884;28;20571;-79
2021/08/04 07:24:03;;;;;;;11.00;9.43;;;26.50;99.90;;;;;;5045818;28;20622;-80
2021/08/04 07:26:29;;;;;;;10.03;8.80;;;27.20;99.90;;;;;;5050056;28;20576;-79
2021/08/04 07:28:56;;;;;;;10.43;9.47;;;28.00;99.90;;;;;;5032436;28;20568;-81
2021/08/04 07:31:23;;;;;;;12.60;10.00;;;28.70;99.90;;;;;;5044163;28;20186;-80
2021/08/04 07:33:48;;;;;;;9.83;8.93;;;29.20;99.90;;;;;;5043108;28;21042;-80
2021/08/04 07:36:14;;;;;;;10.97;8.90;;;29.40;99.90;;;;;;5040971;28;20583;-80
2021/08/04 07:38:40;;;;;;;13.93;9.13;;;29.40;99.90;;;;;;5047005;28;20178;-80
2021/08/04 07:41:06;;;;;;;8.80;8.00;;;29.30;99.90;;;;;;5023651;28;20591;-81
2021/08/04 07:43:31;;;;;;;10.63;9.63;;;29.20;99.90;;;;;;5043972;28;20204;-82
2021/08/04 07:45:57;;;;;;;10.67;9.67;;;29.00;99.90;;;;;;5043147;28;20579;-80
2021/08/04 07:48:23;;;;;;;10.77;9.20;;;28.80;99.90;;;;;;5044034;28;20210;-82
2021/08/04 07:50:49;;;;;;;10.33;9.27;;;28.80;99.90;;;;;;5032086;28;20188;-80
2021/08/04 07:53:14;;;;;;;10.87;9.83;;;28.80;99.90;;;;;;5051188;28;20175;-81
2021/08/04 07:55:40;;;;;;;12.30;9.67;;;28.70;99.90;;;;;;5051402;28;20214;-80
2021/08/04 07:58:06;;;;;;;9.67;8.77;;;28.80;99.90;;;;;;5033441;28;20177;-81
2021/08/04 08:00:32;;;;;;;10.87;9.97;;;29.00;99.90;;;;;;5051980;28;20557;-80
2021/08/04 08:02:58;;;;;;;11.47;10.33;;;29.50;99.90;;;;;;5039837;28;20177;-80
2021/08/04 08:05:24;;;;;;;10.47;9.57;;;29.80;99.90;;;;;;5037877;28;20615;-80
2021/08/04 08:07:50;;;;;;;9.27;8.57;;;30.50;99.90;;;;;;5041817;28;20201;-80
2021/08/04 08:10:18;;;;;;;10.50;9.60;;;31.20;99.90;;;;;;5054444;28;20235;-80
2021/08/04 08:12:45;;;;;;;14.63;10.33;;;31.80;99.90;;;;;;5047549;28;20586;-79
2021/08/04 08:15:12;;;;;;;11.73;10.53;;;32.50;99.90;;;;;;5052663;28;20631;-79
2021/08/04 08:17:39;;;;;;;10.23;9.30;;;33.00;99.90;;;;;;5052334;28;20576;-79
2021/08/04 08:20:06;;;;;;;9.20;8.40;;;33.30;99.90;;;;;;5022637;28;20633;-81
2021/08/04 08:22:33;;;;;;;10.33;9.33;;;33.70;99.90;;;;;;5042333;28;20631;-80
2021/08/04 08:24:59;;;;;;;9.23;8.43;;;34.10;99.90;;;;;;5048624;28;20611;-80
2021/08/04 08:27:25;;;;;;;11.23;10.17;;;34.50;99.90;;;;;;5048475;28;20568;-80
2021/08/04 08:29:51;;;;;;;11.87;10.80;;;34.90;99.30;;;;;;5048473;28;20953;-81
2021/08/04 08:32:17;;;;;;;10.67;9.67;;;35.30;98.40;;;;;;5044440;28;20226;-80
2021/08/04 08:34:43;;;;;;;10.40;9.17;;;35.60;97.40;;;;;;5048111;28;20747;-80
2021/08/04 08:37:09;;;;;;;11.30;10.20;;;36.00;96.00;;;;;;5047477;28;20612;-80
2021/08/04 08:39:34;;;;;;;12.20;11.13;;;36.30;94.70;;;;;;5030030;28;20205;-80
2021/08/04 08:42:02;;;;;;;12.17;11.17;;;36.50;91.70;;;;;;5047678;28;20182;-80
2021/08/04 08:44:29;;;;;;;11.20;10.13;;;36.70;91.00;;;;;;5048687;28;20228;-80
2021/08/04 08:46:55;;;;;;;11.20;10.20;;;36.90;90.10;;;;;;5048847;28;20569;-79
2021/08/04 08:49:27;;;;;;;10.03;9.20;;;37.00;88.50;;;;;;5043665;28;20656;-81
2021/08/04 08:51:54;;;;;;;12.23;11.03;;;37.20;86.90;;;;;;5047595;28;20656;-81
2021/08/04 08:54:21;;;;;;;11.03;10.23;;;37.10;82.10;;;;;;5045652;28;20631;-80
2021/08/04 08:56:47;;;;;;;11.77;10.90;;;36.70;79.60;;;;;;5045797;28;20572;-80
2021/08/04 08:59:16;;;;;;;11.60;10.57;;;36.40;79.50;;;;;;5042721;28;20568;-80
2021/08/04 09:01:42;;;;;;;9.87;9.17;;;36.40;78.60;;;;;;5049682;28;20564;-80
2021/08/04 09:04:10;;;;;;;11.80;10.70;;;36.60;79.50;;;;;;5049152;28;20619;-81
2021/08/04 09:06:48;;;;;;;10.90;10.10;;;37.00;78.90;;;;;;5043171;28;20578;-80
2021/08/04 09:09:24;;;;;;;10.93;10.17;;;37.20;77.00;;;;;;5045033;28;20648;-80
2021/08/04 09:11:55;;;;;;;11.53;10.63;;;37.40;74.70;;;;;;5046037;28;20591;-81
2021/08/04 09:14:32;;;;;;;10.73;9.73;;;37.50;73.50;;;;;;5042052;28;20624;-80
2021/08/04 09:17:10;;;;;;;10.13;9.40;;;37.70;73.30;;;;;;5044888;28;20568;-82
2021/08/04 09:19:38;;;;;;;11.37;10.40;;;37.50;68.00;;;;;;5048803;28;20579;-80
2021/08/04 09:22:20;;;;;;;9.20;8.50;;;37.10;68.30;;;;;;5046412;28;20588;-80
2021/08/04 09:25:05;;;;;;;9.80;9.00;;;37.10;64.40;;;;;;5047275;28;20626;-80
2021/08/04 09:27:49;;;;;;;11.03;10.07;;;36.90;67.10;;;;;;5042069;28;20977;-80
2021/08/04 09:30:22;;;;;;;9.67;9.00;;;36.70;66.30;;;;;;5047935;28;20577;-80
2021/08/04 09:32:48;;;;;;;10.87;8.90;;;36.70;66.80;;;;;;5046159;28;20571;-79
2021/08/04 09:35:21;;;;;;;10.20;9.40;;;37.00;68.20;;;;;;5047628;28;20636;-80
2021/08/04 09:37:48;;;;;;;9.57;8.83;;;37.30;64.40;;;;;;5052972;28;20564;-80
2021/08/04 09:40:21;;;;;;;8.93;8.13;;;37.60;66.20;;;;;;5051607;28;20724;-80
2021/08/04 09:42:52;;;;;;;20.70;9.07;;;38.00;64.60;;;;;;5052520;28;20941;-80
2021/08/04 09:45:27;;;;;;;9.40;8.60;;;38.40;62.90;;;;;;5052544;28;20972;-80
2021/08/04 09:48:05;;;;;;;9.83;9.03;;;38.00;60.30;;;;;;5053013;28;20571;-80
2021/08/04 09:50:51;;;;;;;8.17;7.47;;;37.60;60.60;;;;;;5053287;28;20603;-80
2021/08/04 09:53:26;;;;;;;11.53;10.53;;;37.30;53.40;;;;;;5051305;28;20638;-80
2021/08/04 09:56:09;;;;;;;10.70;9.90;;;36.60;56.50;;;;;;5047080;28;20676;-81
2021/08/04 09:58:41;;;;;;;8.83;7.67;;;36.30;56.10;;;;;;5043341;28;20680;-81
2021/08/04 10:01:07;;;;;;;7.50;6.90;;;36.40;60.00;;;;;;5033994;28;20667;-81
2021/08/04 10:03:33;;;;;;;9.10;8.30;;;36.70;60.50;;;;;;5036684;28;20600;-81
2021/08/04 10:05:59;;;;;;;7.70;7.00;;;37.10;59.00;;;;;;5036068;28;20161;-81
2021/08/04 10:08:25;;;;;;;7.80;7.20;;;36.70;57.60;;;;;;5034242;28;20928;-81
2021/08/04 10:10:53;;;;;;;6.57;6.07;;;36.20;56.70;;;;;;5039712;28;20577;-81
2021/08/04 10:13:22;;;;;;;7.10;6.50;;;36.00;57.60;;;;;;5042656;28;20173;-82
2021/08/04 10:15:52;;;;;;;8.30;7.40;;;35.70;57.20;;;;;;5043680;28;20698;-81
2021/08/04 10:18:23;;;;;;;6.93;6.30;;;35.50;57.50;;;;;;5025369;28;20585;-82
2021/08/04 10:20:56;;;;;;;6.83;6.27;;;35.40;58.40;;;;;;5043420;28;20572;-82
2021/08/04 10:23:24;;;;;;;6.53;5.83;;;35.60;57.80;;;;;;5038927;28;20618;-81
2021/08/04 10:25:51;;;;;;;7.67;7.00;;;35.70;59.00;;;;;;5037604;28;20691;-81
2021/08/04 10:28:17;;;;;;;7.50;6.90;;;36.10;58.90;;;;;;5046170;28;20922;-81
2021/08/04 10:30:44;;;;;;;6.23;5.73;;;36.40;59.20;;;;;;5042455;28;20564;-82
2021/08/04 10:33:10;;;;;;;8.37;7.67;;;36.70;58.70;;;;;;5036026;28;20201;-83
2021/08/04 10:35:38;;;;;;;6.70;6.20;;;37.00;57.40;;;;;;5033410;28;20646;-82
2021/08/04 10:38:08;;;;;;;7.73;7.17;;;36.70;56.30;;;;;;5033103;28;20588;-83
2021/08/04 10:40:33;;;;;;;6.47;5.93;;;36.70;56.10;;;;;;5018181;28;20576;-82
2021/08/04 10:42:59;;;;;;;6.37;5.77;;;36.60;56.00;;;;;;5034219;28;20659;-82
2021/08/04 10:45:28;;;;;;;7.40;6.70;;;36.40;55.40;;;;;;5032886;28;20189;-82
2021/08/04 10:47:59;;;;;;;6.37;5.77;;;35.80;54.00;;;;;;5034128;28;20173;-81
2021/08/04 10:50:26;;;;;;;6.60;6.07;;;35.10;54.00;;;;;;5032839;28;20582;-83
2021/08/04 10:53:00;;;;;;;6.40;5.27;;;34.70;54.60;;;;;;5036799;28;20583;-82
2021/08/04 10:55:50;;;;;;;6.70;5.63;;;34.30;55.00;;;;;;5034584;28;20650;-81
2021/08/04 10:58:17;;;;;;;5.20;4.70;;;33.90;55.40;;;;;;5033429;28;20925;-81
2021/08/04 11:00:45;;;;;;;4.43;3.93;;;33.50;55.60;;;;;;5033536;28;20569;-80
2021/08/04 11:03:29;;;;;;;4.00;3.37;;;33.30;55.80;;;;;;5033995;28;20600;-81
2021/08/04 11:06:06;;;;;;;5.80;4.10;;;33.20;57.20;;;;;;5041254;28;20575;-81
2021/08/04 11:08:32;;;;;;;7.20;5.10;;;33.20;57.00;;;;;;5044269;28;20600;-81
2021/08/04 11:10:58;;;;;;;6.40;5.60;;;33.00;56.70;;;;;;5047366;28;20572;-81
2021/08/04 11:13:46;;;;;;;6.50;5.93;;;32.80;57.00;;;;;;5047372;28;20611;-82
2021/08/04 11:16:32;;;;;;;5.33;4.83;;;32.80;57.20;;;;;;5036427;28;20674;-81
2021/08/04 11:19:07;;;;;;;4.60;4.20;;;32.80;57.10;;;;;;5038073;28;20555;-81
2021/08/04 11:21:35;;;;;;;5.77;4.63;;;32.90;57.00;;;;;;5034080;28;20569;-81
2021/08/04 11:24:01;;;;;;;4.90;4.50;;;32.90;56.50;;;;;;5016770;28;21000;-81
2021/08/04 11:26:30;;;;;;;4.70;4.40;;;32.80;56.00;;;;;;5032133;28;20559;-80
2021/08/04 11:28:57;;;;;;;5.80;4.60;;;32.60;56.10;;;;;;5031519;28;20198;-81
2021/08/04 11:31:23;;;;;;;5.50;5.10;;;32.40;55.90;;;;;;5030014;28;21128;-81
2021/08/04 11:33:50;;;;;;;6.07;5.50;;;32.10;56.00;;;;;;5030319;28;20658;-81
2021/08/04 11:36:22;;;;;;;4.90;4.50;;;31.80;55.70;;;;;;5029715;28;20595;-81
2021/08/04 11:38:54;;;;;;;3.70;3.40;;;31.40;55.40;;;;;;5031034;28;20618;-81
2021/08/04 11:41:27;;;;;;;3.93;3.63;;;31.00;56.00;;;;;;5030088;28;20573;-81
2021/08/04 11:43:59;;;;;;;4.93;4.50;;;30.70;56.60;;;;;;5029405;28;20683;-81
2021/08/04 11:46:34;;;;;;;5.93;5.30;;;30.40;56.60;;;;;;5029824;28;20584;-81
2021/08/04 11:49:02;;;;;;;5.70;4.90;;;30.30;57.40;;;;;;5033100;28;20580;-81
2021/08/04 11:51:45;;;;;;;5.83;5.40;;;30.10;58.20;;;;;;5034358;28;20572;-81
2021/08/04 11:54:13;;;;;;;5.37;4.97;;;30.00;58.70;;;;;;5037450;28;20627;-81
2021/08/04 11:56:44;;;;;;;5.87;5.47;;;29.90;58.50;;;;;;5035067;28;20571;-81
2021/08/04 11:59:10;;;;;;;4.77;4.33;;;29.70;58.30;;;;;;5017037;28;20641;-81
2021/08/04 12:01:36;;;;;;;7.10;5.53;;;29.50;58.40;;;;;;5033558;28;20682;-79
2021/08/04 12:04:03;;;;;;;4.60;4.20;;;29.40;58.70;;;;;;5032812;28;20618;-80
2021/08/04 12:06:29;;;;;;;5.50;5.00;;;29.20;59.00;;;;;;5034328;28;20183;-81
2021/08/04 12:08:55;;;;;;;6.20;5.60;;;29.10;59.20;;;;;;5035126;28;20579;-80
2021/08/04 12:11:21;;;;;;;4.67;4.27;;;29.00;59.30;;;;;;5034267;28;20540;-81
2021/08/04 12:14:05;;;;;;;6.00;5.50;;;29.00;60.60;;;;;;4999899;28;20212;-80
2021/08/04 12:16:31;;;;;;;5.57;5.17;;;28.90;60.20;;;;;;5036009;28;20182;-80
2021/08/04 12:18:57;;;;;;;8.60;4.70;;;28.80;60.20;;;;;;5033241;28;20577;-80
2021/08/04 12:21:23;;;;;;;6.00;4.23;;;28.80;60.50;;;;;;5016229;28;21151;-80
2021/08/04 12:23:58;;;;;;;4.43;4.03;;;28.70;60.60;;;;;;5032619;28;20182;-80
2021/08/04 12:26:23;;;;;;;4.40;3.60;;;28.60;60.70;;;;;;5032690;28;20638;-80
2021/08/04 12:28:49;;;;;;;5.23;3.77;;;28.50;61.00;;;;;;5032684;28;20593;-80
2021/08/04 12:31:15;;;;;;;4.53;4.00;;;28.50;61.30;;;;;;5037896;28;20578;-81
2021/08/04 12:34:06;;;;;;;4.63;4.00;;;28.50;62.30;;;;;;5016218;28;20627;-80
2021/08/04 12:36:45;;;;;;;4.17;3.83;;;28.50;62.70;;;;;;5033706;28;20170;-79
2021/08/04 12:39:11;;;;;;;4.07;3.77;;;28.50;62.80;;;;;;5033826;28;20626;-81
2021/08/04 12:41:37;;;;;;;5.03;4.53;;;28.60;62.70;;;;;;5033730;28;20608;-81